createdAt,value
2023-04-17T00:01:43.621Z,90.81
2023-04-17T00:04:13.166Z,90.51
2023-04-17T00:06:43.460Z,91.20
2023-04-17T00:09:12.225Z,91.38
2023-04-17T00:11:41.663Z,92.77
2023-04-17T00:14:12.400Z,91.64
2023-04-17T00:16:40.704Z,91.44
2023-04-17T00:19:09.170Z,91.61
2023-04-17T00:21:37.059Z,90.35
2023-04-17T00:24:05.031Z,91.33
2023-04-17T00:26:34.524Z,91.49
2023-04-17T00:29:03.773Z,92.19
2023-04-17T00:31:31.844Z,91.79
2023-04-17T00:34:01.376Z,91.67
2023-04-17T00:36:31.741Z,92.77
2023-04-17T00:38:59.790Z,93.28
2023-04-17T00:41:35.191Z,93.97
2023-04-17T00:44:04.468Z,93.15
2023-04-17T00:46:32.488Z,94.38
2023-04-17T00:49:01.778Z,93.86
2023-04-17T00:51:30.027Z,93.26
2023-04-17T00:53:59.846Z,93.85
2023-04-17T00:56:29.734Z,94.09
2023-04-17T00:58:59.358Z,93.95
2023-04-17T01:01:28.762Z,94.12
2023-04-17T01:03:59.905Z,92.72
2023-04-17T01:06:28.121Z,93.94
2023-04-17T01:08:56.246Z,93.93
2023-04-17T01:11:24.204Z,93.03
2023-04-17T01:13:52.480Z,93.32
2023-04-17T01:16:20.873Z,94.43
2023-04-17T01:18:50.582Z,93.86
2023-04-17T01:21:18.519Z,94.56
2023-04-17T01:23:48.649Z,92.73
2023-04-17T01:26:21.065Z,94.75
2023-04-17T01:28:53.565Z,94.73
2023-04-17T01:31:22.141Z,94.16
2023-04-17T01:33:50.989Z,92.97
2023-04-17T01:36:19.571Z,94.52
2023-04-17T01:38:47.481Z,93.21
2023-04-17T01:41:15.375Z,93.71
2023-04-17T01:43:46.571Z,94.34
2023-04-17T01:46:14.964Z,94.21
2023-04-17T01:48:42.965Z,94.16
2023-04-17T01:51:10.828Z,95.55
2023-04-17T01:53:41.445Z,94.68
2023-04-17T01:56:09.375Z,95.50
2023-04-17T01:58:39.447Z,95.20
2023-04-17T02:01:08.681Z,94.95
2023-04-17T02:03:36.757Z,94.90
2023-04-17T02:06:08.028Z,95.13
2023-04-17T02:08:35.955Z,95.09
2023-04-17T02:11:05.253Z,95.31
2023-04-17T02:13:33.208Z,94.38
2023-04-17T02:16:01.190Z,94.93
2023-04-17T02:18:30.611Z,94.69
2023-04-17T02:20:58.471Z,94.89
2023-04-17T02:23:26.401Z,93.90
2023-04-17T02:25:54.316Z,95.38
2023-04-17T02:28:22.189Z,94.96
2023-04-17T02:30:50.062Z,94.79
2023-04-17T02:33:17.954Z,94.65
2023-04-17T02:35:47.218Z,94.69
2023-04-17T02:38:17.542Z,94.02
2023-04-17T02:40:45.447Z,95.53
2023-04-17T02:43:14.116Z,95.70
2023-04-17T02:45:41.972Z,95.81
2023-04-17T02:48:10.323Z,96.29
2023-04-17T02:50:41.057Z,96.15
2023-04-17T02:53:10.391Z,96.31
2023-04-17T02:55:38.361Z,96.29
2023-04-17T02:58:06.199Z,96.41
2023-04-17T03:00:34.184Z,96.62
2023-04-17T03:03:03.218Z,96.39
2023-04-17T03:05:31.371Z,96.03
2023-04-17T03:07:59.678Z,96.34
2023-04-17T03:10:28.977Z,96.68
2023-04-17T03:12:56.939Z,96.16
2023-04-17T03:15:24.890Z,96.50
2023-04-17T03:17:52.877Z,95.93
2023-04-17T03:20:21.116Z,93.55
2023-04-17T03:22:49.022Z,93.54
2023-04-17T03:25:16.941Z,92.57
2023-04-17T03:27:47.816Z,93.57
2023-04-17T03:30:15.871Z,92.15
2023-04-17T03:32:43.769Z,92.58
2023-04-17T03:35:11.717Z,92.10
2023-04-17T03:37:39.611Z,94.24
2023-04-17T03:40:09.216Z,89.28
2023-04-17T03:42:37.591Z,89.50
2023-04-17T03:45:08.233Z,90.37
2023-04-17T03:47:36.146Z,90.49
2023-04-17T03:50:04.249Z,91.01
2023-04-17T03:52:32.174Z,91.00
2023-04-17T03:55:00.054Z,90.98
2023-04-17T03:57:27.991Z,91.09
2023-04-17T03:59:55.933Z,91.58
2023-04-17T04:02:25.417Z,91.09
2023-04-17T04:04:53.680Z,91.56
2023-04-17T04:07:21.913Z,91.57
2023-04-17T04:09:49.805Z,91.12
2023-04-17T04:12:17.940Z,90.93
2023-04-17T04:14:45.993Z,91.06
2023-04-17T04:17:13.977Z,90.97
2023-04-17T04:19:43.571Z,90.90
2023-04-17T04:22:13.635Z,91.15
2023-04-17T04:24:42.704Z,91.14
2023-04-17T04:27:12.972Z,91.31
2023-04-17T04:29:45.571Z,91.25
2023-04-17T04:32:13.602Z,91.48
2023-04-17T04:34:44.677Z,91.18
2023-04-17T04:37:15.405Z,91.53
2023-04-17T04:39:43.676Z,91.05
2023-04-17T04:42:11.566Z,91.25
2023-04-17T04:44:39.415Z,91.73
2023-04-17T04:47:07.389Z,91.30
2023-04-17T04:49:35.254Z,91.41
2023-04-17T04:52:04.575Z,91.77
2023-04-17T04:54:32.639Z,91.32
2023-04-17T04:57:00.584Z,91.84
2023-04-17T04:59:28.487Z,91.23
2023-04-17T05:01:56.612Z,91.14
2023-04-17T05:04:24.991Z,91.07
2023-04-17T05:06:52.957Z,91.20
2023-04-17T05:09:22.235Z,90.91
2023-04-17T05:11:50.165Z,90.69
2023-04-17T05:14:18.143Z,90.93
2023-04-17T05:16:46.437Z,90.54
2023-04-17T05:19:14.590Z,90.71
2023-04-17T05:21:42.651Z,91.11
2023-04-17T05:24:10.737Z,90.52
2023-04-17T05:26:40.098Z,90.44
2023-04-17T05:29:09.091Z,90.49
2023-04-17T05:31:37.392Z,90.31
2023-04-17T05:34:05.371Z,89.93
2023-04-17T05:36:33.648Z,90.70
2023-04-17T05:39:01.595Z,89.84
2023-04-17T05:41:31.156Z,90.05
2023-04-17T05:44:00.745Z,90.43
2023-04-17T05:46:28.761Z,89.74
2023-04-17T05:48:56.834Z,89.14
2023-04-17T05:51:25.181Z,89.31
2023-04-17T05:53:53.118Z,89.94
2023-04-17T05:56:21.056Z,89.08
2023-04-17T05:58:48.951Z,88.28
2023-04-17T06:01:22.530Z,88.63
2023-04-17T06:03:51.139Z,88.41
2023-04-17T06:06:19.381Z,87.56
2023-04-17T06:08:47.434Z,88.35
2023-04-17T06:11:15.829Z,88.61
2023-04-17T06:13:43.812Z,87.35
2023-04-17T06:16:11.810Z,88.04
2023-04-17T06:18:41.561Z,87.20
2023-04-17T06:21:14.486Z,87.39
2023-04-17T06:23:42.423Z,87.72
2023-04-17T06:26:10.954Z,87.35
2023-04-17T06:28:38.861Z,87.33
2023-04-17T06:31:06.993Z,87.51
2023-04-17T06:33:34.987Z,87.58
2023-04-17T06:36:10.563Z,87.38
2023-04-17T06:38:38.445Z,87.66
2023-04-17T06:41:06.492Z,86.94
2023-04-17T06:43:34.719Z,86.67
2023-04-17T06:46:02.686Z,86.53
2023-04-17T06:48:30.682Z,84.41
2023-04-17T06:50:58.596Z,84.15
2023-04-17T06:53:28.052Z,84.18
2023-04-17T06:55:55.947Z,82.48
2023-04-17T06:58:23.955Z,81.98
2023-04-17T07:00:51.890Z,82.55
2023-04-17T07:03:19.932Z,82.91
2023-04-17T07:05:48.873Z,83.17
2023-04-17T07:08:18.518Z,82.05
2023-04-17T07:10:47.851Z,82.80
2023-04-17T07:13:15.859Z,82.60
2023-04-17T07:15:43.919Z,83.81
2023-04-17T07:18:11.962Z,84.20
2023-04-17T07:20:39.831Z,83.54
2023-04-17T07:23:07.797Z,84.15
2023-04-17T07:25:35.790Z,83.13
2023-04-17T07:28:05.181Z,84.16
2023-04-17T07:30:33.092Z,83.30
2023-04-17T07:33:02.481Z,82.84
2023-04-17T07:35:30.573Z,83.10
2023-04-17T07:38:01.118Z,82.36
2023-04-17T07:40:29.942Z,82.84
2023-04-17T07:42:57.868Z,81.60
2023-04-17T07:45:28.557Z,82.46
2023-04-17T07:47:56.624Z,83.38
2023-04-17T07:50:24.699Z,82.19
2023-04-17T07:52:53.410Z,83.20
2023-04-17T07:55:21.468Z,81.69
2023-04-17T07:57:50.141Z,81.51
2023-04-17T08:00:19.484Z,82.14
2023-04-17T08:02:48.978Z,80.29
2023-04-17T08:05:17.091Z,80.54
2023-04-17T08:07:45.046Z,79.18
2023-04-17T08:10:12.913Z,79.32
2023-04-17T08:12:41.434Z,80.15
2023-04-17T08:15:10.088Z,80.48
2023-04-17T08:17:38.053Z,81.25
2023-04-17T08:20:12.044Z,80.98
2023-04-17T08:22:41.219Z,81.16
2023-04-17T08:25:10.891Z,80.96
2023-04-17T08:27:40.355Z,80.74
2023-04-17T08:30:12.952Z,77.37
2023-04-17T08:32:43.473Z,78.43
2023-04-17T08:35:15.395Z,76.45
2023-04-17T08:37:47.499Z,75.80
2023-04-17T08:40:17.158Z,77.13
2023-04-17T08:42:47.656Z,76.60
2023-04-17T08:45:16.507Z,76.95
2023-04-17T08:47:47.532Z,76.83
2023-04-17T08:50:21.937Z,77.77
2023-04-17T08:52:52.023Z,76.93
2023-04-17T08:55:22.361Z,77.25
2023-04-17T08:57:58.083Z,77.66
2023-04-17T09:00:27.360Z,77.41
2023-04-17T09:02:57.677Z,77.78
2023-04-17T09:05:30.288Z,78.36
2023-04-17T09:08:10.344Z,79.42
2023-04-17T09:10:39.465Z,78.50
2023-04-17T09:13:08.501Z,78.89
2023-04-17T09:15:37.756Z,78.57
2023-04-17T09:18:05.864Z,78.06
2023-04-17T09:20:50.238Z,77.47
2023-04-17T09:23:18.843Z,79.28
2023-04-17T09:25:47.315Z,77.91
2023-04-17T09:28:16.690Z,78.12
2023-04-17T09:30:44.601Z,77.94
2023-04-17T09:33:13.042Z,77.89
2023-04-17T09:35:42.384Z,77.82
2023-04-17T09:38:10.282Z,76.72
2023-04-17T09:40:40.006Z,77.39
2023-04-17T09:43:10.058Z,75.47
2023-04-17T09:45:42.685Z,74.31
2023-04-17T09:48:12.599Z,74.05
2023-04-17T09:50:42.521Z,75.61
2023-04-17T09:53:10.412Z,73.67
2023-04-17T09:55:43.469Z,73.91
2023-04-17T09:58:12.274Z,73.96
2023-04-17T10:00:42.855Z,73.89
2023-04-17T10:03:11.397Z,70.81
2023-04-17T10:05:39.908Z,72.05
2023-04-17T10:08:09.563Z,70.50
2023-04-17T10:10:49.218Z,72.15
2023-04-17T10:13:21.222Z,67.69
2023-04-17T10:15:50.431Z,68.33
2023-04-17T10:18:24.220Z,66.50
2023-04-17T10:20:55.438Z,66.99
2023-04-17T10:23:33.893Z,67.16
2023-04-17T10:26:38.953Z,67.94
2023-04-17T10:29:06.911Z,66.72
2023-04-17T10:32:24.318Z,65.82
2023-04-17T10:34:53.540Z,66.92
2023-04-17T10:37:23.294Z,68.19
2023-04-17T10:39:56.636Z,66.70
2023-04-17T10:42:25.738Z,65.83
2023-04-17T10:45:03.212Z,64.26
2023-04-17T10:47:33.533Z,64.35
2023-04-17T10:50:04.339Z,66.34
2023-04-17T10:52:44.928Z,66.75
2023-04-17T10:55:18.370Z,66.04
2023-04-17T10:58:12.986Z,65.11
2023-04-17T11:00:52.118Z,64.83
2023-04-17T11:03:24.267Z,64.40
2023-04-17T11:05:52.538Z,62.35
2023-04-17T11:08:21.150Z,60.51
2023-04-17T11:10:55.008Z,62.96
2023-04-17T11:13:23.109Z,62.55
2023-04-17T11:15:52.212Z,64.96
2023-04-17T11:18:22.245Z,62.36
2023-04-17T11:20:51.238Z,63.24
2023-04-17T11:23:19.195Z,63.70
2023-04-17T11:25:47.313Z,60.86
2023-04-17T11:28:17.135Z,59.46
2023-04-17T11:30:45.590Z,62.17
2023-04-17T11:33:21.076Z,60.45
2023-04-17T11:35:49.467Z,59.96
2023-04-17T11:38:21.800Z,59.72
2023-04-17T11:40:52.667Z,64.39
2023-04-17T11:43:23.979Z,60.92
2023-04-17T11:45:54.740Z,63.54
2023-04-17T11:48:24.990Z,62.31
2023-04-17T11:50:57.341Z,61.73
2023-04-17T11:53:27.522Z,61.68
2023-04-17T11:56:15.739Z,62.14
2023-04-17T11:58:49.839Z,62.41
2023-04-17T12:01:19.249Z,62.45
2023-04-17T12:03:48.890Z,59.57
2023-04-17T12:06:17.127Z,61.83
2023-04-17T12:08:50.137Z,62.03
2023-04-17T12:11:24.749Z,63.11
2023-04-17T12:13:55.427Z,61.55
2023-04-17T12:16:25.594Z,64.59
2023-04-17T12:18:54.299Z,64.58
2023-04-17T12:21:23.855Z,66.88
2023-04-17T12:23:52.601Z,69.46
2023-04-17T12:26:20.858Z,73.35
2023-04-17T12:28:48.761Z,73.93
2023-04-17T12:31:18.123Z,74.95
2023-04-17T12:33:46.001Z,75.67
2023-04-17T12:36:14.080Z,76.52
2023-04-17T12:38:43.108Z,75.75
2023-04-17T12:41:11.170Z,76.43
2023-04-17T12:43:39.010Z,76.17
2023-04-17T12:46:07.212Z,73.18
2023-04-17T12:48:37.073Z,74.54
2023-04-17T12:51:04.961Z,74.59
2023-04-17T12:53:32.857Z,74.53
2023-04-17T12:56:00.855Z,73.34
2023-04-17T12:58:28.740Z,73.38
2023-04-17T13:00:56.770Z,72.83
2023-04-17T13:03:24.809Z,71.41
2023-04-17T13:05:54.208Z,71.62
2023-04-17T13:08:22.054Z,72.75
2023-04-17T13:10:49.963Z,72.44
2023-04-17T13:13:17.787Z,71.83
2023-04-17T13:15:47.453Z,70.76
2023-04-17T13:18:15.866Z,70.84
2023-04-17T13:20:43.846Z,69.89
2023-04-17T13:23:14.453Z,68.67
2023-04-17T13:25:42.440Z,68.94
2023-04-17T13:28:10.314Z,69.32
2023-04-17T13:30:39.679Z,70.03
2023-04-17T13:33:07.829Z,69.16
2023-04-17T13:35:35.969Z,67.20
2023-04-17T13:38:04.161Z,68.08
2023-04-17T13:40:33.414Z,67.24
2023-04-17T13:43:01.401Z,68.22
2023-04-17T13:45:29.302Z,68.68
2023-04-17T13:47:57.265Z,67.04
2023-04-17T13:50:25.173Z,67.43
2023-04-17T13:52:53.076Z,65.96
2023-04-17T13:55:20.980Z,64.79
2023-04-17T13:57:51.092Z,64.82
2023-04-17T14:00:20.837Z,64.84
2023-04-17T14:02:48.834Z,62.75
2023-04-17T14:05:17.040Z,64.67
2023-04-17T14:07:45.830Z,65.62
2023-04-17T14:10:14.691Z,61.45
2023-04-17T14:12:42.581Z,63.92
2023-04-17T14:15:13.043Z,63.15
2023-04-17T14:17:43.071Z,69.54
2023-04-17T14:20:12.285Z,69.94
2023-04-17T14:22:40.194Z,72.42
2023-04-17T14:25:08.682Z,74.40
2023-04-17T14:27:37.048Z,78.29
2023-04-17T14:30:05.668Z,78.24
2023-04-17T14:32:35.055Z,78.67
2023-04-17T14:35:02.973Z,80.43
2023-04-17T14:37:30.956Z,81.11
2023-04-17T14:39:58.832Z,81.46
2023-04-17T14:42:26.684Z,82.95
2023-04-17T14:44:54.579Z,83.13
2023-04-17T14:47:22.556Z,81.99
2023-04-17T14:49:52.098Z,81.46
2023-04-17T14:52:20.060Z,80.72
2023-04-17T14:54:48.037Z,80.59
2023-04-17T14:57:15.934Z,81.00
2023-04-17T14:59:44.413Z,81.07
2023-04-17T15:02:12.628Z,79.94
2023-04-17T15:04:42.453Z,80.52
2023-04-17T15:07:11.953Z,80.06
2023-04-17T15:09:39.894Z,79.14
2023-04-17T15:12:08.270Z,76.75
2023-04-17T15:14:36.155Z,76.21
2023-04-17T15:17:06.838Z,74.94
2023-04-17T15:19:34.941Z,78.08
2023-04-17T15:22:02.922Z,74.34
2023-04-17T15:24:32.743Z,72.72
2023-04-17T15:27:00.670Z,75.89
2023-04-17T15:29:28.787Z,72.69
2023-04-17T15:31:56.769Z,75.62
2023-04-17T15:34:25.027Z,72.47
2023-04-17T15:36:52.986Z,71.13
2023-04-17T15:39:20.956Z,72.01
2023-04-17T15:41:50.940Z,71.77
2023-04-17T15:44:18.954Z,75.64
2023-04-17T15:46:46.933Z,77.00
2023-04-17T15:49:14.788Z,77.50
2023-04-17T15:51:42.674Z,79.01
2023-04-17T15:54:13.458Z,80.29
2023-04-17T15:56:42.073Z,80.93
2023-04-17T15:59:11.565Z,80.84
2023-04-17T16:01:39.755Z,81.25
2023-04-17T16:04:07.818Z,81.87
2023-04-17T16:06:36.289Z,80.97
2023-04-17T16:09:04.572Z,82.37
2023-04-17T16:11:32.471Z,83.74
2023-04-17T16:14:00.362Z,82.72
2023-04-17T16:16:29.900Z,83.42
2023-04-17T16:18:57.918Z,83.48
2023-04-17T16:21:26.845Z,83.36
2023-04-17T16:23:54.717Z,83.81
2023-04-17T16:26:23.259Z,83.98
2023-04-17T16:28:51.195Z,83.78
2023-04-17T16:31:22.582Z,83.41
2023-04-17T16:33:51.975Z,83.35
2023-04-17T16:36:20.228Z,83.88
2023-04-17T16:38:48.094Z,85.49
2023-04-17T16:41:16.172Z,84.94
2023-04-17T16:43:44.044Z,85.02
2023-04-17T16:46:22.161Z,84.82
2023-04-17T16:48:57.482Z,85.47
2023-04-17T16:51:26.194Z,85.25
2023-04-17T16:53:54.189Z,85.98
2023-04-17T16:56:22.202Z,85.54
2023-04-17T16:58:50.142Z,86.00
2023-04-17T17:01:18.092Z,85.75
2023-04-17T17:03:46.589Z,86.25
2023-04-17T17:06:15.923Z,86.29
2023-04-17T17:08:46.812Z,86.56
2023-04-17T17:11:15.663Z,87.06
2023-04-17T17:13:43.844Z,86.62
2023-04-17T17:16:11.765Z,86.50
2023-04-17T17:18:39.686Z,86.87
2023-04-17T17:21:08.034Z,87.00
2023-04-17T17:23:37.984Z,87.03
2023-04-17T17:26:06.362Z,87.01
2023-04-17T17:28:35.100Z,87.88
2023-04-17T17:31:04.203Z,86.53
2023-04-17T17:33:32.427Z,86.53
2023-04-17T17:36:00.735Z,85.80
2023-04-17T17:38:29.056Z,85.64
2023-04-17T17:40:58.354Z,86.15
2023-04-17T17:43:27.796Z,85.74
2023-04-17T17:45:55.796Z,86.12
2023-04-17T17:48:23.697Z,86.89
2023-04-17T17:50:55.103Z,86.18
2023-04-17T17:53:26.155Z,86.75
2023-04-17T17:55:56.463Z,86.69
2023-04-17T17:58:28.148Z,89.82
2023-04-17T18:00:56.107Z,91.55
2023-04-17T18:03:24.214Z,91.88
2023-04-17T18:05:52.735Z,91.12
2023-04-17T18:08:20.715Z,90.82
2023-04-17T18:10:48.715Z,91.51
2023-04-17T18:13:16.634Z,89.88
2023-04-17T18:15:45.998Z,90.39
2023-04-17T18:18:18.374Z,86.41
2023-04-17T18:20:52.346Z,88.37
2023-04-17T18:23:20.257Z,88.39
2023-04-17T18:25:58.023Z,87.98
2023-04-17T18:28:25.965Z,87.26
2023-04-17T18:30:55.542Z,89.86
2023-04-17T18:33:23.470Z,86.10
2023-04-17T18:35:51.462Z,87.32
2023-04-17T18:38:19.346Z,88.59
2023-04-17T18:40:47.307Z,86.78
2023-04-17T18:43:15.423Z,85.66
2023-04-17T18:45:43.362Z,87.44
2023-04-17T18:48:12.635Z,88.38
2023-04-17T18:50:40.588Z,88.62
2023-04-17T18:53:08.468Z,86.71
2023-04-17T18:55:38.261Z,85.09
2023-04-17T18:58:06.914Z,85.47
2023-04-17T19:00:36.251Z,86.33
2023-04-17T19:03:04.697Z,85.76
2023-04-17T19:05:34.100Z,85.48
2023-04-17T19:08:02.045Z,86.41
2023-04-17T19:10:30.109Z,86.06
2023-04-17T19:12:58.044Z,85.33
2023-04-17T19:15:26.113Z,85.50
2023-04-17T19:17:54.094Z,86.13
2023-04-17T19:20:23.340Z,86.64
2023-04-17T19:22:52.677Z,86.05
2023-04-17T19:25:20.533Z,85.40
2023-04-17T19:27:48.446Z,85.89
2023-04-17T19:30:16.401Z,85.40
2023-04-17T19:32:44.598Z,85.42
2023-04-17T19:35:12.524Z,85.14
2023-04-17T19:37:40.449Z,86.27
2023-04-17T19:40:21.302Z,83.47
2023-04-17T19:42:49.793Z,85.15
2023-04-17T19:45:17.803Z,85.46
2023-04-17T19:47:45.837Z,84.66
2023-04-17T19:50:13.777Z,84.60
2023-04-17T19:52:43.097Z,83.68
2023-04-17T19:55:13.045Z,83.26
2023-04-17T19:57:44.676Z,84.61
2023-04-17T20:00:14.484Z,85.18
2023-04-17T20:02:42.851Z,84.36
2023-04-17T20:05:11.285Z,84.32
2023-04-17T20:07:39.143Z,83.83
2023-04-17T20:10:08.310Z,83.88
2023-04-17T20:12:37.553Z,85.13
2023-04-17T20:15:06.192Z,84.02
2023-04-17T20:17:34.098Z,83.63
2023-04-17T20:20:02.030Z,84.38
2023-04-17T20:22:29.931Z,83.49
2023-04-17T20:24:57.820Z,83.59
2023-04-17T20:27:26.545Z,84.27
2023-04-17T20:29:55.856Z,84.38
2023-04-17T20:32:24.481Z,84.68
2023-04-17T20:34:52.398Z,84.62
2023-04-17T20:37:21.881Z,84.70
2023-04-17T20:39:51.583Z,85.97
2023-04-17T20:42:19.484Z,84.39
2023-04-17T20:44:47.523Z,84.49
2023-04-17T20:47:16.797Z,85.61
2023-04-17T20:49:44.770Z,85.72
2023-04-17T20:52:12.668Z,86.30
2023-04-17T20:54:40.615Z,85.64
2023-04-17T20:57:08.550Z,86.12
2023-04-17T20:59:37.319Z,86.73
2023-04-17T21:02:05.453Z,86.36
2023-04-17T21:04:35.007Z,86.77
2023-04-17T21:07:03.176Z,87.10
2023-04-17T21:09:31.184Z,86.60
2023-04-17T21:11:59.094Z,86.44
2023-04-17T21:14:28.048Z,86.33
2023-04-17T21:16:58.427Z,85.83
2023-04-17T21:19:27.780Z,85.71
2023-04-17T21:21:59.184Z,86.19
2023-04-17T21:24:27.128Z,85.66
2023-04-17T21:26:58.570Z,86.31
2023-04-17T21:29:27.992Z,85.46
2023-04-17T21:31:57.126Z,86.44
2023-04-17T21:34:25.582Z,86.13
2023-04-17T21:36:54.232Z,86.18
2023-04-17T21:39:23.654Z,86.83
2023-04-17T21:41:51.597Z,86.27
2023-04-17T21:44:19.635Z,85.71
2023-04-17T21:46:47.605Z,86.22
2023-04-17T21:49:15.512Z,85.87
2023-04-17T21:51:43.580Z,86.46
2023-04-17T21:54:11.700Z,86.05
2023-04-17T21:56:41.229Z,85.90
2023-04-17T21:59:09.580Z,86.25
2023-04-17T22:01:37.655Z,85.82
2023-04-17T22:04:05.996Z,85.85
2023-04-17T22:06:36.055Z,85.66
2023-04-17T22:09:04.934Z,85.51
2023-04-17T22:11:33.274Z,85.67
2023-04-17T22:14:02.538Z,86.31
2023-04-17T22:16:30.657Z,85.53
2023-04-17T22:18:58.662Z,85.40
2023-04-17T22:21:27.006Z,85.35
2023-04-17T22:23:54.968Z,85.87
2023-04-17T22:26:22.863Z,86.16
2023-04-17T22:28:50.880Z,85.04
2023-04-17T22:31:21.112Z,85.50
2023-04-17T22:33:49.073Z,86.21
2023-04-17T22:36:16.956Z,86.34
2023-04-17T22:38:44.829Z,85.49
2023-04-17T22:41:12.715Z,85.91
2023-04-17T22:43:40.594Z,85.94
2023-04-17T22:46:08.560Z,86.32
2023-04-17T22:48:37.841Z,86.20
2023-04-17T22:51:06.049Z,83.71
2023-04-17T22:53:34.770Z,85.47
2023-04-17T22:56:04.128Z,85.64
2023-04-17T22:58:33.470Z,85.22
2023-04-17T23:01:01.528Z,85.43
2023-04-17T23:03:29.428Z,85.73
2023-04-17T23:05:58.928Z,85.28
2023-04-17T23:08:26.961Z,85.72
2023-04-17T23:10:59.760Z,86.86
2023-04-17T23:13:28.290Z,85.13
2023-04-17T23:15:56.630Z,86.02
2023-04-17T23:18:25.037Z,85.03
2023-04-17T23:20:53.004Z,85.42
2023-04-17T23:23:22.329Z,85.83
2023-04-17T23:25:50.748Z,87.34
2023-04-17T23:28:18.629Z,85.08
2023-04-17T23:30:46.599Z,86.23
2023-04-17T23:33:14.481Z,87.21
2023-04-17T23:35:42.418Z,86.33
2023-04-17T23:38:10.498Z,86.42
2023-04-17T23:40:42.889Z,86.60
2023-04-17T23:43:11.050Z,86.47
2023-04-17T23:45:39.059Z,86.19
2023-04-17T23:48:07.182Z,85.91
2023-04-17T23:50:35.440Z,87.22
2023-04-17T23:53:03.360Z,86.46
